地図

経路データ

SID SEASON NUMBER BASIN SUBBASIN NAME ISO_TIME NATURE LAT LON WMO_WIND WMO_PRES WMO_AGENCY TRACK_TYPE DIST2LAND LANDFALL IFLAG USA_AGENCY USA_ATCF_ID USA_LAT USA_LON USA_RECORD USA_STATUS USA_WIND USA_PRES USA_SSHS USA_R34_NE USA_R34_SE USA_R34_SW USA_R34_NW USA_R50_NE USA_R50_SE USA_R50_SW USA_R50_NW USA_R64_NE USA_R64_SE USA_R64_SW USA_R64_NW USA_POCI USA_ROCI USA_RMW USA_EYE TOKYO_LAT TOKYO_LON TOKYO_GRADE TOKYO_WIND TOKYO_PRES TOKYO_R50_DIR TOKYO_R50_LONG TOKYO_R50_SHORT TOKYO_R30_DIR TOKYO_R30_LONG TOKYO_R30_SHORT TOKYO_LAND CMA_LAT CMA_LON CMA_CAT CMA_WIND CMA_PRES HKO_LAT HKO_LON HKO_CAT HKO_WIND HKO_PRES NEWDELHI_LAT NEWDELHI_LON NEWDELHI_GRADE NEWDELHI_WIND NEWDELHI_PRES NEWDELHI_CI NEWDELHI_DP NEWDELHI_POCI REUNION_LAT REUNION_LON REUNION_TYPE REUNION_WIND REUNION_PRES REUNION_TNUM REUNION_CI REUNION_RMW REUNION_R34_NE REUNION_R34_SE REUNION_R34_SW REUNION_R34_NW REUNION_R50_NE REUNION_R50_SE REUNION_R50_SW REUNION_R50_NW REUNION_R64_NE REUNION_R64_SE REUNION_R64_SW REUNION_R64_NW BOM_LAT BOM_LON BOM_TYPE BOM_WIND BOM_PRES BOM_TNUM BOM_CI BOM_RMW BOM_R34_NE BOM_R34_SE BOM_R34_SW BOM_R34_NW BOM_R50_NE BOM_R50_SE BOM_R50_SW BOM_R50_NW BOM_R64_NE BOM_R64_SE BOM_R64_SW BOM_R64_NW BOM_ROCI BOM_POCI BOM_EYE BOM_POS_METHOD BOM_PRES_METHOD NADI_LAT NADI_LON NADI_CAT NADI_WIND NADI_PRES WELLINGTON_LAT WELLINGTON_LON WELLINGTON_WIND WELLINGTON_PRES DS824_LAT DS824_LON DS824_STAGE DS824_WIND DS824_PRES TD9636_LAT TD9636_LON TD9636_STAGE TD9636_WIND TD9636_PRES TD9635_LAT TD9635_LON TD9635_WIND TD9635_PRES TD9635_ROCI NEUMANN_LAT NEUMANN_LON NEUMANN_CLASS NEUMANN_WIND NEUMANN_PRES MLC_LAT MLC_LON MLC_CLASS MLC_WIND MLC_PRES USA_GUST BOM_GUST BOM_GUST_PER REUNION_GUST REUNION_GUST_PER USA_SEAHGT USA_SEARAD_NE USA_SEARAD_SE USA_SEARAD_SW USA_SEARAD_NW STORM_SPEED STORM_DIR
2021262N10349 2021 76 NA NA SAM 2021-09-19 00:00:00 NR 10.3000 -11.5000 PROVISIONAL 0 0 O_____________ nhc_working_bt AL182021 10.3000 -11.5000 DB 15 -3 16 259
2021262N10349 2021 76 NA NA SAM 2021-09-19 03:00:00 NR 10.1404 -12.3002 PROVISIONAL 0 0 P_____________ AL182021 10.1404 -12.3002 DB 15 -3 16 259
2021262N10349 2021 76 NA NA SAM 2021-09-19 06:00:00 NR 10.0000 -13.1000 PROVISIONAL 0 0 O_____________ nhc_working_bt AL182021 10.0000 -13.1000 DB 15 -3 16 261
2021262N10349 2021 76 NA NA SAM 2021-09-19 09:00:00 NR 9.89231 -13.8999 PROVISIONAL 10 10 P_____________ AL182021 9.89231 -13.8999 DB 15 -3 16 263
2021262N10349 2021 76 NA NA SAM 2021-09-19 12:00:00 NR 9.80000 -14.7000 PROVISIONAL 49 49 O_____________ nhc_working_bt AL182021 9.80000 -14.7000 DB 15 -3 16 263
2021262N10349 2021 76 NA NA SAM 2021-09-19 15:00:00 NR 9.69237 -15.5075 PROVISIONAL 123 123 P_____________ AL182021 9.69237 -15.5075 DB 15 -3 16 263
2021262N10349 2021 76 NA NA SAM 2021-09-19 18:00:00 NR 9.60000 -16.3000 PROVISIONAL 196 196 O_____________ nhc_working_bt AL182021 9.60000 -16.3000 DB 15 -3 15 264
2021262N10349 2021 76 NA NA SAM 2021-09-19 21:00:00 NR 9.53479 -17.0575 PROVISIONAL 266 266 P_____________ AL182021 9.53479 -17.0575 DB 17 -3 15 266
2021262N10349 2021 76 NA NA SAM 2021-09-20 00:00:00 NR 9.50000 -17.8000 PROVISIONAL 315 315 O_____________ nhc_working_bt AL182021 9.50000 -17.8000 DB 20 -3 15 269
2021262N10349 2021 76 NA NA SAM 2021-09-20 03:00:00 NR 9.50724 -18.5349 PROVISIONAL 368 368 P_____________ AL182021 9.50724 -18.5349 DB 22 -3 15 270
2021262N10349 2021 76 NA NA SAM 2021-09-20 06:00:00 NR 9.50000 -19.3000 PROVISIONAL 424 424 O_____________ nhc_working_bt AL182021 9.50000 -19.3000 DB 25 1009 -3 1012 120 60 16 266
2021262N10349 2021 76 NA NA SAM 2021-09-20 09:00:00 NR 9.39235 -20.1278 PROVISIONAL 492 492 P_____________ AL182021 9.39235 -20.1278 DB 25 1009 -3 1012 120 60 17 263
2021262N10349 2021 76 NA NA SAM 2021-09-20 12:00:00 NR 9.30000 -21.0000 PROVISIONAL 575 575 O_____________ nhc_working_bt AL182021 9.30000 -21.0000 DB 25 1009 -3 1012 120 60 17 268
2021262N10349 2021 76 NA NA SAM 2021-09-20 15:00:00 NR 9.32727 -21.8849 PROVISIONAL 656 656 P_____________ AL182021 9.32727 -21.8849 DB 25 1009 -3 1012 120 60 18 273
2021262N10349 2021 76 NA NA SAM 2021-09-20 18:00:00 NR 9.40000 -22.8000 PROVISIONAL 736 736 O_____________ nhc_working_bt AL182021 9.40000 -22.8000 DB 25 1009 -3 1012 120 60 19 274
2021262N10349 2021 76 NA NA SAM 2021-09-20 21:00:00 NR 9.45758 -23.7799 PROVISIONAL 830 830 P_____________ AL182021 9.45758 -23.7799 DB 25 1009 -3 1012 120 60 19 273
2021262N10349 2021 76 NA NA SAM 2021-09-21 00:00:00 NR 9.50000 -24.7000 PROVISIONAL 922 922 O_____________ nhc_working_bt AL182021 9.50000 -24.7000 DB 25 1010 -3 1012 120 60 17 272
2021262N10349 2021 76 NA NA SAM 2021-09-21 03:00:00 NR 9.50719 -25.4525 PROVISIONAL 1004 1004 P_____________ AL182021 9.50719 -25.4525 DB 25 1010 -3 1012 120 60 14 270
2021262N10349 2021 76 NA NA SAM 2021-09-21 06:00:00 NR 9.50000 -26.1000 PROVISIONAL 1066 1066 O_____________ nhc_working_bt AL182021 9.50000 -26.1000 DB 25 1010 -3 1012 120 60 12 270
2021262N10349 2021 76 NA NA SAM 2021-09-21 09:00:00 NR 9.49982 -26.7150 PROVISIONAL 1129 1129 P_____________ AL182021 9.49982 -26.7150 DB 25 1010 -3 1012 120 60 12 270
2021262N10349 2021 76 NA NA SAM 2021-09-21 12:00:00 NR 9.50000 -27.3000 PROVISIONAL 1192 1192 O_____________ nhc_working_bt AL182021 9.50000 -27.3000 DB 25 1010 -3 1012 120 60 12 270
2021262N10349 2021 76 NA NA SAM 2021-09-21 15:00:00 NR 9.49244 -27.9075 PROVISIONAL 1255 1255 P_____________ AL182021 9.49244 -27.9075 DB 25 1010 -3 1012 120 60 12 270
2021262N10349 2021 76 NA NA SAM 2021-09-21 18:00:00 NR 9.50000 -28.5000 PROVISIONAL 1318 1318 O_____________ nhc_working_bt AL182021 9.50000 -28.5000 DB 25 1010 -3 1012 120 60 11 273
2021262N10349 2021 76 NA NA SAM 2021-09-21 21:00:00 NR 9.54988 -29.0574 PROVISIONAL 1382 1379 P_____________ AL182021 9.54988 -29.0574 DB 25 1010 -3 1012 120 70 11 275
2021262N10349 2021 76 NA NA SAM 2021-09-22 00:00:00 NR 9.60000 -29.6000 PROVISIONAL 1432 1432 O_____________ nhc_working_bt AL182021 9.60000 -29.6000 DB 25 1010 -3 1012 120 80 35 11 272
2021262N10349 2021 76 NA NA SAM 2021-09-22 03:00:00 NR 9.59238 -30.1426 PROVISIONAL 1484 1484 P_____________ AL182021 9.59238 -30.1426 DB 25 1010 -3 1012 120 80 11 270
2021262N10349 2021 76 NA NA SAM 2021-09-22 06:00:00 NR 9.60000 -30.7000 PROVISIONAL 1544 1544 O_____________ nhc_working_bt AL182021 9.60000 -30.7000 DB 25 1010 -3 1012 120 80 35 11 275
2021262N10349 2021 76 NA NA SAM 2021-09-22 09:00:00 NR 9.68493 -31.2925 PROVISIONAL 1601 1601 P_____________ AL182021 9.68493 -31.2925 DB 27 1009 -3 1012 120 60 12 280
2021262N10349 2021 76 NA NA SAM 2021-09-22 12:00:00 NR 9.80000 -31.9000 PROVISIONAL 1658 1645 O_____________ nhc_working_bt AL182021 9.80000 -31.9000 DB 30 1009 -3 1012 120 40 40 12 280
2021262N10349 2021 76 NA NA SAM 2021-09-22 15:00:00 NR 9.89985 -32.4925 PROVISIONAL 1645 1625 P_____________ AL182021 9.89985 -32.4925 DB 30 1008 -3 1012 120 40 12 280
2021262N10349 2021 76 NA NA SAM 2021-09-22 18:00:00 TS 10.0200 -33.1200 PROVISIONAL 1625 1605 O_____________ nhc_working_bt AL182021 10.0000 -33.1000 TD 30 1008 -1 1012 120 40 40 13 280
2021262N10349 2021 76 NA NA SAM 2021-09-22 21:00:00 TS 10.1099 -33.7467 PROVISIONAL 1605 1585 P_____________ AL182021 10.0923 -33.7201 TD 30 1008 -1 1012 120 40 13 278
2021262N10349 2021 76 NA NA SAM 2021-09-23 00:00:00 TS 10.2000 -34.4000 PROVISIONAL 1585 1568 O_____________ nhc_working_bt AL182021 10.2000 -34.4000 TD 30 1008 -1 1012 120 40 40 14 279
2021262N10349 2021 76 NA NA SAM 2021-09-23 03:00:00 TS 10.3119 -35.1058 PROVISIONAL 1568 1554 P_____________ AL182021 10.3500 -35.1775 TD 32 1007 -1 1012 120 35 15 279
2021262N10349 2021 76 NA NA SAM 2021-09-23 06:00:00 TS 10.4390 -35.8628 PROVISIONAL 1551 1545 O_____________ nhc_working_bt AL182021 10.5000 -36.0000 TS 35 1006 0 30 30 1012 120 30 40 16 280
2021262N10349 2021 76 NA NA SAM 2021-09-23 09:00:00 TS 10.5742 -36.6568 PROVISIONAL 1551 1541 P_____________ AL182021 10.6074 -36.8076 TS 40 1004 0 35 35 1012 120 30 16 280
2021262N10349 2021 76 NA NA SAM 2021-09-23 12:00:00 TS 10.7076 -37.4620 PROVISIONAL 1545 1541 O_____________ nhc_working_bt AL182021 10.7000 -37.6000 TS 45 1003 0 40 40 1012 120 30 50 16 279
2021262N10349 2021 76 NA NA SAM 2021-09-23 15:00:00 TS 10.8187 -38.2639 PROVISIONAL 1544 1535 P_____________ AL182021 10.7999 -38.3800 TS 47 1001 0 45 45 1012 135 25 15 278
2021262N10349 2021 76 NA NA SAM 2021-09-23 18:00:00 TS 10.9164 -39.0189 PROVISIONAL 1535 1492 O_____________ nhc_working_bt AL182021 10.9000 -39.1000 TS 50 1000 0 50 30 50 20 1012 150 20 60 12 60 30 14 278
2021262N10349 2021 76 NA NA SAM 2021-09-23 21:00:00 TS 11.0018 -39.6759 PROVISIONAL 1482 1431 P_____________ AL182021 10.9922 -39.7151 TS 55 998 0 45 30 40 20 1012 135 17 12 75 45 13 278
2021262N10349 2021 76 NA NA SAM 2021-09-24 00:00:00 TS 11.1000 -40.3000 PROVISIONAL 1431 1382 O_____________ nhc_working_bt AL182021 11.1000 -40.3000 TS 60 997 0 40 30 20 30 20 11 1012 120 15 75 12 90 60 13 281
2021262N10349 2021 76 NA NA SAM 2021-09-24 03:00:00 TS 11.2431 -40.9544 PROVISIONAL 1373 1332 P_____________ AL182021 11.2498 -40.9275 TS 62 995 0 45 35 25 35 25 15 1011 120 15 12 90 60 13 283
2021262N10349 2021 76 NA NA SAM 2021-09-24 06:00:00 TS 11.3938 -41.6347 PROVISIONAL 1332 1278 O_____________ nhc_working_bt AL182021 11.4000 -41.6000 HU 65 993 1 50 40 30 40 30 20 15 20 15 1011 120 15 80 12 90 60 14 281
2021262N10349 2021 76 NA NA SAM 2021-09-24 09:00:00 TS 11.5104 -42.3663 PROVISIONAL 1269 1226 P_____________ AL182021 11.5001 -42.3576 HU 65 993 1 50 40 30 40 30 20 15 20 15 1011 120 15 14 279
2021262N10349 2021 76 NA NA SAM 2021-09-24 12:00:00 TS 11.6281 -43.0811 PROVISIONAL 1218 1185 O_____________ nhc_working_bt AL182021 11.6000 -43.1000 HU 65 993 1 50 40 30 40 30 20 15 20 15 1011 120 15 80 13 281
2021262N10349 2021 76 NA NA SAM 2021-09-24 15:00:00 TS 11.7696 -43.7129 PROVISIONAL 1185 1148 P_____________ AL182021 11.7348 -43.7301 HU 67 991 1 50 40 30 45 30 20 15 20 15 1011 120 15 12 284
2021262N10349 2021 76 NA NA SAM 2021-09-24 18:00:00 TS 11.9316 -44.2953 PROVISIONAL 1148 1127 O_____________ nhc_working_bt AL182021 11.9000 -44.3000 HU 70 989 1 50 40 30 50 30 20 15 20 15 11 1011 120 15 85 12 90 30 30 60 12 287
2021262N10349 2021 76 NA NA SAM 2021-09-24 21:00:00 TS 12.1112 -44.8687 PROVISIONAL 1122 1104 P_____________ AL182021 12.0924 -44.8725 HU 77 985 1 50 40 30 50 30 20 15 20 15 11 1012 120 15 12 90 45 45 75 11 289
2021262N10349 2021 76 NA NA SAM 2021-09-25 00:00:00 TS 12.3000 -45.4000 PROVISIONAL 1106 1090 O_____________ nhc_working_bt AL182021 12.3000 -45.4000 HU 85 982 2 50 40 30 50 30 20 15 20 15 11 5 11 1013 120 15 105 12 90 60 60 90 11 291
2021262N10349 2021 76 NA NA SAM 2021-09-25 03:00:00 TS 12.4952 -45.8843 PROVISIONAL 1093 1079 P_____________ AL182021 12.5223 -45.8650 HU 90 977 2 50 40 30 50 30 22 15 22 15 13 8 13 1013 120 15 12 97 67 67 97 10 291
2021262N10349 2021 76 NA NA SAM 2021-09-25 06:00:00 TS 12.6600 -46.3371 PROVISIONAL 1088 1054 O_____________ nhc_working_bt AL182021 12.7000 -46.3000 HU 95 973 2 50 40 30 50 30 25 15 25 15 15 11 15 1013 120 15 115 12 105 75 75 105 9 286
2021262N10349 2021 76 NA NA SAM 2021-09-25 09:00:00 TS 12.7443 -46.7889 PROVISIONAL 1054 1037 P_____________ AL182021 12.7574 -46.7502 HU 100 966 3 50 40 30 50 30 25 15 25 15 15 11 15 1013 120 15 12 112 75 75 112 9 280
2021262N10349 2021 76 NA NA SAM 2021-09-25 12:00:00 TS 12.8183 -47.2300 PROVISIONAL 1037 1016 O_____________ nhc_working_bt AL182021 12.8000 -47.2000 HU 105 960 3 50 40 30 50 30 25 15 25 15 15 11 15 1013 120 15 130 12 120 75 75 120 9 284
2021262N10349 2021 76 NA NA SAM 2021-09-25 15:00:00 TS 12.9538 -47.6761 PROVISIONAL 1026 1013 P_____________ AL182021 12.9350 -47.6724 HU 110 955 3 60 65 35 55 35 27 17 27 20 17 13 17 1013 120 15 12 105 82 97 120 9 289
2021262N10349 2021 76 NA NA SAM 2021-09-25 18:00:00 TS 13.1092 -48.0829 PROVISIONAL 1013 1007 O_____________ nhc_working_bt AL182021 13.1000 -48.1000 HU 115 950 4 70 90 40 60 40 30 20 30 25 20 15 20 1013 120 15 140 12 90 90 120 120 8 293
2021262N10349 2021 76 NA NA SAM 2021-09-25 21:00:00 TS 13.2545 -48.4057 PROVISIONAL 1017 1007 P_____________ AL182021 13.2498 -48.4151 HU 120 946 4 70 90 40 60 40 30 20 30 25 20 15 20 1013 120 12 12 105 90 120 120 7 296
2021262N10349 2021 76 NA NA SAM 2021-09-26 00:00:00 TS 13.4000 -48.7000 PROVISIONAL 1012 1007 O_____________ nhc_working_bt AL182021 13.4000 -48.7000 HU 125 943 4 70 90 40 60 40 30 20 30 25 20 15 20 1013 120 10 150 12 120 90 120 120 7 296
2021262N10349 2021 76 NA NA SAM 2021-09-26 03:00:00 TS 13.5498 -49.0319 PROVISIONAL 1008 1005 P_____________ AL182021 13.5650 -49.0500 HU 125 943 4 75 85 40 60 40 30 20 30 25 20 15 20 1013 120 10 12 127 90 120 127 7 294
2021262N10349 2021 76 NA NA SAM 2021-09-26 06:00:00 TS 13.6789 -49.3536 PROVISIONAL 1012 1004 O_____________ nhc_working_bt AL182021 13.7000 -49.4000 HU 125 943 4 80 80 40 60 40 30 20 30 25 20 15 20 1013 120 10 150 12 135 90 120 135 6 289
2021262N10349 2021 76 NA NA SAM 2021-09-26 09:00:00 TS 13.7570 -49.6542 PROVISIONAL 1010 1002 P_____________ AL182021 13.7575 -49.7301 HU 127 941 4 80 80 40 60 40 30 20 30 25 20 15 20 1013 120 10 12 142 90 105 127 6 285
2021262N10349 2021 76 NA NA SAM 2021-09-26 12:00:00 TS 13.8268 -49.9091 PROVISIONAL 1002 997 O_____________ nhc_working_bt AL182021 13.8000 -50.0000 HU 130 939 4 80 80 40 60 40 30 20 30 25 20 15 20 1013 120 10 150 12 150 90 90 120 5 291
2021262N10349 2021 76 NA NA SAM 2021-09-26 15:00:00 TS 13.9178 -50.0958 PROVISIONAL 1002 1002 P_____________ AL182021 13.8699 -50.1726 HU 132 934 4 80 80 50 65 40 30 22 30 25 20 17 20 1013 120 10 12 150 90 90 120 4 304
2021262N10349 2021 76 NA NA SAM 2021-09-26 18:00:00 TS 14.0529 -50.2516 PROVISIONAL 1012 1012 O_____________ nhc_working_bt AL182021 14.0000 -50.3000 HU 135 929 4 80 80 60 70 40 30 25 30 25 20 20 20 1013 120 10 160 12 150 90 90 120 5 318
2021262N10349 2021 76 NA NA SAM 2021-09-26 21:00:00 TS 14.2583 -50.4139 PROVISIONAL 1028 1024 P_____________ AL182021 14.2275 -50.4350 HU 132 934 4 80 80 60 70 40 30 25 30 25 20 20 20 1013 120 10 12 135 90 90 120 6 323
2021262N10349 2021 76 NA NA SAM 2021-09-27 00:00:00 TS 14.5000 -50.6000 PROVISIONAL 1040 1040 O_____________ nhc_working_bt AL182021 14.5000 -50.6000 HU 130 940 4 80 80 60 70 40 30 25 30 25 20 20 20 1013 120 10 160 12 120 90 90 120 6 320
2021262N10349 2021 76 NA NA SAM 2021-09-27 03:00:00 TS 14.7436 -50.8406 PROVISIONAL 1053 1053 P_____________ AL182021 14.7575 -50.8275 HU 122 944 4 85 85 60 70 40 30 27 32 25 20 20 20 1013 120 10 12 120 82 90 120 7 314
2021262N10349 2021 76 NA NA SAM 2021-09-27 06:00:00 TS 14.9838 -51.1139 PROVISIONAL 1074 1070 O_____________ nhc_working_bt AL182021 15.0000 -51.1000 HU 115 948 4 90 90 60 70 40 30 30 35 25 20 20 20 1013 120 10 145 12 120 75 90 120 7 310
2021262N10349 2021 76 NA NA SAM 2021-09-27 09:00:00 TS 15.1981 -51.4005 PROVISIONAL 1085 1082 P_____________ AL182021 15.2000 -51.3926 HU 110 951 3 90 90 60 70 40 30 30 35 25 20 20 20 1013 125 10 12 120 82 105 120 7 308
2021262N10349 2021 76 NA NA SAM 2021-09-27 12:00:00 TS 15.4208 -51.7040 PROVISIONAL 1098 1098 O_____________ nhc_working_bt AL182021 15.4000 -51.7000 HU 105 955 3 90 90 60 70 40 30 30 35 25 20 20 20 1013 130 10 135 12 120 90 120 120 8 309
2021262N10349 2021 76 NA NA SAM 2021-09-27 15:00:00 TS 15.6849 -52.0208 PROVISIONAL 1123 1107 P_____________ AL182021 15.6350 -52.0001 HU 105 956 3 90 90 60 70 40 30 30 35 25 20 20 20 1013 130 10 12 120 90 120 120 8 312
2021262N10349 2021 76 NA NA SAM 2021-09-27 18:00:00 TS 15.9640 -52.3338 PROVISIONAL 1112 1097 O_____________ nhc_working_bt AL182021 15.9000 -52.3000 HU 105 958 3 90 90 60 70 40 30 30 35 25 20 20 20 1013 130 10 130 12 120 90 120 120 8 314
2021262N10349 2021 76 NA NA SAM 2021-09-27 21:00:00 TS 16.2362 -52.6168 PROVISIONAL 1097 1089 P_____________ AL182021 16.1999 -52.5926 HU 105 956 3 100 90 65 80 50 40 35 42 30 25 22 25 1013 130 12 12 120 90 105 120 8 315
2021262N10349 2021 76 NA NA SAM 2021-09-28 00:00:00 TS 16.5000 -52.9000 PROVISIONAL 1089 1077 O_____________ nhc_working_bt AL182021 16.5000 -52.9000 HU 105 955 3 110 90 70 90 60 50 40 50 35 30 25 30 1013 130 15 130 12 120 90 90 120 8 312
2021262N10349 2021 76 NA NA SAM 2021-09-28 03:00:00 TS 16.7473 -53.2179 PROVISIONAL 1077 1066 P_____________ AL182021 16.7725 -53.2575 HU 110 953 3 110 90 70 90 60 50 40 50 35 30 25 30 1012 135 15 12 120 90 90 120 8 308
2021262N10349 2021 76 NA NA SAM 2021-09-28 06:00:00 TS 16.9662 -53.5315 PROVISIONAL 1073 1056 O_____________ nhc_working_bt AL182021 17.0000 -53.6000 HU 115 952 4 110 90 70 90 60 50 40 50 35 30 25 30 1012 140 15 140 12 120 90 90 120 7 305
2021262N10349 2021 76 NA NA SAM 2021-09-28 09:00:00 TS 17.1340 -53.7983 PROVISIONAL 1056 1048 P_____________ AL182021 17.1574 -53.8577 HU 115 952 4 110 90 70 90 60 50 40 50 35 30 25 30 1012 140 15 12 135 90 90 120 6 303
2021262N10349 2021 76 NA NA SAM 2021-09-28 12:00:00 TS 17.2915 -54.0650 PROVISIONAL 1048 1041 O_____________ nhc_working_bt AL182021 17.3000 -54.1000 HU 115 952 4 110 90 70 90 60 50 40 50 35 30 25 30 1012 140 15 140 12 150 90 90 120 7 302
2021262N10349 2021 76 NA NA SAM 2021-09-28 15:00:00 TS 17.4834 -54.3772 PROVISIONAL 1042 1034 P_____________ AL182021 17.4925 -54.3925 HU 115 949 4 110 105 80 100 60 50 40 50 35 30 25 30 1011 140 12 12 150 90 90 120 7 303
2021262N10349 2021 76 NA NA SAM 2021-09-28 18:00:00 TS 17.6878 -54.6993 PROVISIONAL 1036 1029 O_____________ nhc_working_bt AL182021 17.7000 -54.7000 HU 115 947 4 110 120 90 110 60 50 40 50 35 30 25 30 1011 140 10 140 12 150 90 90 120 7 304
2021262N10349 2021 76 NA NA SAM 2021-09-28 21:00:00 TS 17.8861 -55.0023 PROVISIONAL 1033 1026 P_____________ AL182021 17.8925 -55.0001 HU 115 947 4 110 120 90 110 60 50 40 50 35 30 25 30 1011 140 10 12 165 90 90 150 7 306
2021262N10349 2021 76 NA NA SAM 2021-09-29 00:00:00 TS 18.1000 -55.3000 PROVISIONAL 1030 1027 O_____________ nhc_working_bt AL182021 18.1000 -55.3000 HU 115 947 4 110 120 90 110 60 50 40 50 35 30 25 30 1011 140 10 145 12 180 90 90 180 7 309
2021262N10349 2021 76 NA NA SAM 2021-09-29 03:00:00 TS 18.3428 -55.5937 PROVISIONAL 1030 1023 P_____________ AL182021 18.3424 -55.5926 HU 115 949 4 110 110 85 100 60 50 40 50 35 30 25 30 1011 160 12 12 180 97 105 180 8 311
2021262N10349 2021 76 NA NA SAM 2021-09-29 06:00:00 TS 18.6000 -55.9000 PROVISIONAL 1023 991 O_____________ nhc_working_bt AL182021 18.6000 -55.9000 HU 115 952 4 110 100 80 90 60 50 40 50 35 30 25 30 1011 180 15 140 12 180 105 120 180 8 309
2021262N10349 2021 76 NA NA SAM 2021-09-29 09:00:00 TS 18.8409 -56.2357 PROVISIONAL 991 950 P_____________ AL182021 18.8425 -56.2426 HU 115 952 4 110 100 80 90 60 50 40 50 35 30 25 30 1011 165 15 12 180 105 135 180 8 307
2021262N10349 2021 76 NA NA SAM 2021-09-29 12:00:00 TS 19.0980 -56.5863 PROVISIONAL 950 920 O_____________ nhc_working_bt AL182021 19.1000 -56.6000 HU 115 952 4 110 100 80 90 60 50 40 50 35 30 25 30 1012 150 15 140 12 180 105 150 180 9 310
2021262N10349 2021 76 NA NA SAM 2021-09-29 15:00:00 TS 19.3991 -56.9362 PROVISIONAL 921 884 P_____________ AL182021 19.3924 -56.9501 HU 115 948 4 115 110 80 90 65 50 40 50 35 30 25 30 1012 150 15 12 180 105 150 180 9 313
2021262N10349 2021 76 NA NA SAM 2021-09-29 18:00:00 TS 19.7123 -57.2891 PROVISIONAL 884 856 O_____________ nhc_working_bt AL182021 19.7000 -57.3000 HU 115 945 4 120 120 80 90 70 50 40 50 35 30 25 30 1012 150 15 140 12 180 105 150 180 9 312
2021262N10349 2021 76 NA NA SAM 2021-09-29 21:00:00 TS 19.9971 -57.6392 PROVISIONAL 858 825 P_____________ AL182021 19.9924 -57.6427 HU 120 942 4 125 120 85 95 80 55 50 60 45 37 32 37 1012 150 15 12 180 112 150 180 9 311
2021262N10349 2021 76 NA NA SAM 2021-09-30 00:00:00 TS 20.3000 -58.0000 PROVISIONAL 825 793 O_____________ nhc_working_bt AL182021 20.3000 -58.0000 HU 125 940 4 130 120 90 100 90 60 60 70 55 45 40 45 1012 150 15 150 12 180 120 150 180 10 312
2021262N10349 2021 76 NA NA SAM 2021-09-30 03:00:00 TS 20.6306 -58.3997 PROVISIONAL 793 768 P_____________ AL182021 20.6200 -58.3928 HU 125 938 4 130 120 90 105 85 60 55 65 52 42 37 42 1011 165 15 12 180 127 150 180 10 314
2021262N10349 2021 76 NA NA SAM 2021-09-30 06:00:00 TS 21.0227 -58.8083 PROVISIONAL 768 748 O_____________ nhc_working_bt AL182021 21.0000 -58.8000 HU 125 937 4 130 120 90 110 80 60 50 60 50 40 35 40 1011 180 15 150 12 180 135 150 180 12 320
2021262N10349 2021 76 NA NA SAM 2021-09-30 09:00:00 TS 21.5060 -59.1961 PROVISIONAL 753 744 P_____________ AL182021 21.4774 -59.2001 HU 125 937 4 130 120 90 110 80 65 50 60 50 40 35 40 1011 180 15 12 180 142 150 165 12 324
2021262N10349 2021 76 NA NA SAM 2021-09-30 12:00:00 TS 22.0271 -59.5858 PROVISIONAL 744 735 O_____________ nhc_working_bt AL182021 22.0000 -59.6000 HU 125 937 4 130 120 90 110 80 70 50 60 50 40 35 40 1011 180 15 150 12 180 150 150 150 13 323
2021262N10349 2021 76 NA NA SAM 2021-09-30 15:00:00 TS 22.5031 -60.0076 PROVISIONAL 741 739 P_____________ AL182021 22.4775 -60.0153 HU 125 939 4 130 120 90 110 80 70 50 60 50 40 35 40 1011 180 15 12 195 150 150 165 13 323
2021262N10349 2021 76 NA NA SAM 2021-09-30 18:00:00 TS 23.0178 -60.4039 PROVISIONAL 746 746 O_____________ nhc_working_bt AL182021 23.0000 -60.4000 HU 125 941 4 130 120 90 110 80 70 50 60 50 40 35 40 1011 180 15 150 12 210 150 150 180 13 330
2021262N10349 2021 76 NA NA SAM 2021-09-30 21:00:00 TS 23.6236 -60.7235 PROVISIONAL 772 772 P_____________ AL182021 23.6124 -60.7154 HU 125 939 4 130 120 90 110 80 70 50 60 50 40 35 40 1011 180 15 12 210 150 165 195 14 337
2021262N10349 2021 76 NA NA SAM 2021-10-01 00:00:00 TS 24.3000 -61.0000 PROVISIONAL 813 813 O_____________ nhc_working_bt AL182021 24.3000 -61.0000 HU 125 938 4 130 120 90 110 80 70 50 60 50 40 35 40 1011 180 15 150 12 210 150 180 210 15 339
2021262N10349 2021 76 NA NA SAM 2021-10-01 03:00:00 TS 25.0115 -61.3052 PROVISIONAL 861 861 P_____________ AL182021 25.0126 -61.3224 HU 127 937 4 140 130 90 110 85 75 50 60 55 45 35 40 1012 180 15 12 225 165 195 225 16 341
2021262N10349 2021 76 NA NA SAM 2021-10-01 06:00:00 TS 25.7907 -61.5563 PROVISIONAL 924 924 O_____________ nhc_working_bt AL182021 25.8000 -61.6000 HU 130 936 4 150 140 90 110 90 80 50 60 60 50 35 40 1013 180 15 160 12 240 180 210 240 17 348
2021262N10349 2021 76 NA NA SAM 2021-10-01 09:00:00 TS 26.6534 -61.7029 PROVISIONAL 1010 1010 P_____________ AL182021 26.6924 -61.7950 HU 130 936 4 150 140 90 110 90 80 50 60 60 50 35 40 1013 190 15 12 255 180 210 240 18 353
2021262N10349 2021 76 NA NA SAM 2021-10-01 12:00:00 TS 27.5347 -61.7807 PROVISIONAL 1088 1088 O_____________ nhc_working_bt AL182021 27.6000 -61.9000 HU 130 936 4 150 140 90 110 90 80 50 60 60 50 35 40 1014 200 15 160 12 270 180 210 240 17 355
2021262N10349 2021 76 NA NA SAM 2021-10-01 15:00:00 TS 28.3634 -61.8596 PROVISIONAL 1179 1179 P_____________ AL182021 28.4224 -61.9524 HU 130 936 4 150 160 110 120 85 85 60 65 55 47 35 37 1013 175 17 12 270 210 210 225 16 358
2021262N10349 2021 76 NA NA SAM 2021-10-01 18:00:00 TS 29.1614 -61.8568 PROVISIONAL 1263 1263 O_____________ nhc_working_bt AL182021 29.2000 -61.9000 HU 130 937 4 150 180 130 130 80 90 70 70 50 45 35 35 1012 150 20 160 12 270 240 210 210 16 4
2021262N10349 2021 76 NA NA SAM 2021-10-01 21:00:00 TS 29.9457 -61.7223 PROVISIONAL 1344 1344 P_____________ AL182021 29.9650 -61.7377 HU 127 938 4 150 180 130 130 80 90 70 70 50 45 35 35 1012 150 20 12 270 255 225 225 16 11
2021262N10349 2021 76 NA NA SAM 2021-10-02 00:00:00 TS 30.7000 -61.5000 PROVISIONAL 1416 1383 O_____________ nhc_working_bt AL182021 30.7000 -61.5000 HU 125 940 4 150 180 130 130 80 90 70 70 50 45 35 35 1012 150 20 150 12 270 270 240 240 15 14
2021262N10349 2021 76 NA NA SAM 2021-10-02 03:00:00 TS 31.4316 -61.2945 PROVISIONAL 1383 1323 P_____________ AL182021 31.4220 -61.3088 HU 122 942 4 150 180 130 130 80 90 70 70 52 45 37 32 1013 195 20 12 270 292 270 255 15 17
2021262N10349 2021 76 NA NA SAM 2021-10-02 06:00:00 TS 32.1274 -60.9810 PROVISIONAL 1323 1270 O_____________ nhc_working_bt AL182021 32.1000 -61.0000 HU 120 945 4 150 180 130 130 80 90 70 70 55 45 40 30 1015 240 20 140 12 270 315 300 270 15 28
2021262N10349 2021 76 NA NA SAM 2021-10-02 09:00:00 TS 32.7583 -60.4767 PROVISIONAL 1262 1217 P_____________ AL182021 32.6929 -60.4447 HU 117 946 4 150 180 130 130 80 90 70 70 55 45 40 30 1015 240 20 12 270 322 300 270 16 36
2021262N10349 2021 76 NA NA SAM 2021-10-02 12:00:00 TS 33.3892 -59.8896 PROVISIONAL 1217 1163 O_____________ nhc_working_bt AL182021 33.3000 -59.8000 HU 115 948 4 150 180 130 130 80 90 70 70 55 45 40 30 1015 240 20 140 12 270 330 300 270 17 35
2021262N10349 2021 76 NA NA SAM 2021-10-02 15:00:00 TS 34.1090 -59.3359 PROVISIONAL 1167 1117 P_____________ AL182021 34.0572 -59.2351 HU 112 949 3 165 195 145 160 90 95 70 80 57 52 40 30 1015 240 20 12 225 305 300 240 17 33
2021262N10349 2021 76 NA NA SAM 2021-10-02 18:00:00 TS 34.8063 -58.7860 PROVISIONAL 1117 1081 O_____________ nhc_working_bt AL182021 34.8000 -58.7000 HU 110 950 3 180 210 160 190 100 100 70 90 60 60 40 30 1015 240 20 135 12 180 280 300 210 16 35
2021262N10349 2021 76 NA NA SAM 2021-10-02 21:00:00 TS 35.3932 -58.2464 PROVISIONAL 1086 1063 P_____________ AL182021 35.4021 -58.1989 HU 105 952 3 180 210 160 190 100 100 70 90 60 60 40 30 1015 240 20 12 180 290 315 210 14 39
2021262N10349 2021 76 NA NA SAM 2021-10-03 00:00:00 TS 35.9000 -57.7000 PROVISIONAL 1064 1040 O_____________ nhc_working_bt AL182021 35.9000 -57.7000 HU 100 954 3 180 210 160 190 100 100 70 90 60 60 40 30 1015 240 20 130 12 180 300 330 210 13 43
2021262N10349 2021 76 NA NA SAM 2021-10-03 03:00:00 TS 36.3308 -57.1651 PROVISIONAL 1042 1014 P_____________ AL182021 36.3372 -57.1643 HU 95 957 2 180 210 170 190 90 90 65 85 50 50 30 25 1015 240 20 12 180 295 335 240 12 48
2021262N10349 2021 76 NA NA SAM 2021-10-03 06:00:00 TS 36.6862 -56.6036 PROVISIONAL 1017 1002 O_____________ nhc_working_bt AL182021 36.7000 -56.6000 HU 90 960 2 180 210 180 190 80 80 60 80 40 40 20 20 1015 240 20 110 12 180 290 340 270 11 55
2021262N10349 2021 76 NA NA SAM 2021-10-03 09:00:00 TS 36.9651 -56.0321 PROVISIONAL 1006 1000 P_____________ AL182021 37.0068 -56.0362 HU 87 962 2 180 210 180 190 80 80 60 80 40 40 20 20 1014 270 20 12 210 280 320 275 11 61
2021262N10349 2021 76 NA NA SAM 2021-10-03 12:00:00 TS 37.2291 -55.3987 PROVISIONAL 1008 999 O_____________ nhc_working_bt AL182021 37.3000 -55.4000 HU 85 964 2 180 210 180 190 80 80 60 80 40 40 20 20 1014 300 20 105 12 240 270 300 280 12 62
2021262N10349 2021 76 NA NA SAM 2021-10-03 15:00:00 TS 37.5516 -54.6580 PROVISIONAL 998 967 P_____________ AL182021 37.6425 -54.6298 HU 85 964 2 195 210 190 200 85 80 75 90 40 45 20 20 1014 300 20 12 260 300 330 300 14 61
2021262N10349 2021 76 NA NA SAM 2021-10-03 18:00:00 TS 37.9078 -53.8550 PROVISIONAL 967 934 O_____________ nhc_working_bt AL182021 38.0000 -53.8000 HU 85 964 2 210 210 200 210 90 80 90 100 40 50 20 20 1014 300 20 105 12 280 330 360 320 14 60
2021262N10349 2021 76 NA NA SAM 2021-10-03 21:00:00 TS 38.2588 -53.0771 PROVISIONAL 923 881 P_____________ AL182021 38.3108 -53.0492 HU 87 960 2 210 210 205 210 90 90 100 100 45 55 35 20 1011 300 20 12 280 330 360 320 15 59
2021262N10349 2021 76 NA NA SAM 2021-10-04 00:00:00 TS 38.7000 -52.2000 PROVISIONAL 882 837 O_____________ nhc_working_bt AL182021 38.7000 -52.2000 HU 90 957 2 210 210 210 210 90 100 110 100 50 60 50 20 1008 300 20 110 12 280 330 360 320 18 56
2021262N10349 2021 76 NA NA SAM 2021-10-04 03:00:00 TS 39.2859 -51.1420 PROVISIONAL 829 777 P_____________ AL182021 39.2392 -51.1383 HU 90 957 2 210 210 210 210 90 100 110 100 50 60 50 20 1008 300 20 12 315 345 405 325 22 54
2021262N10349 2021 76 NA NA SAM 2021-10-04 06:00:00 TS 39.9933 -49.9264 PROVISIONAL 780 748 O_____________ nhc_working_bt AL182021 39.9000 -49.9000 HU 90 957 2 210 210 210 210 90 100 110 100 50 60 50 20 1008 300 20 110 12 350 360 450 330 24 53
2021262N10349 2021 76 NA NA SAM 2021-10-04 09:00:00 TS 40.7320 -48.6186 PROVISIONAL 752 727 P_____________ AL182021 40.5578 -48.5819 HU 87 958 2 215 215 215 215 95 100 105 85 55 50 1009 360 20 12 350 360 450 330 26 52
2021262N10349 2021 76 NA NA SAM 2021-10-04 12:00:00 TS 41.6196 -47.1639 PROVISIONAL 732 728 O_____________ nhc_working_bt AL182021 41.4000 -47.1000 HU 85 960 2 221 221 221 221 100 100 100 70 50 50 1010 420 20 105 12 350 360 450 330 30 50
2021262N10349 2021 76 NA NA SAM 2021-10-04 15:00:00 TS 42.7103 -45.5057 PROVISIONAL 744 744 P_____________ AL182021 42.5113 -45.3732 HU 82 962 1 230 230 230 215 110 110 100 70 60 55 1011 510 30 12 350 375 515 330 34 48
2021262N10349 2021 76 NA NA SAM 2021-10-04 18:00:00 TS 43.8981 -43.7568 PROVISIONAL 784 784 O_____________ nhc_working_bt AL182021 43.8000 -43.6000 HU 80 965 1 240 240 240 210 120 120 100 70 70 60 1012 600 40 100 12 350 390 580 330 34 47
2021262N10349 2021 76 NA NA SAM 2021-10-04 21:00:00 TS 45.0556 -42.0359 PROVISIONAL 852 852 P_____________ AL182021 45.0688 -41.8644 HU 77 965 1 240 255 320 255 120 135 125 65 70 65 1012 600 45 12 325 390 670 330 33 42
2021262N10349 2021 76 NA NA SAM 2021-10-05 00:00:00 TS 46.3857 -40.6143 PROVISIONAL 914 911 O_____________ nhc_working_bt AL182021 46.5000 -40.5000 HU 75 965 1 240 270 400 300 120 150 150 60 70 70 1012 600 50 90 12 300 390 760 330 34 26
2021262N10349 2021 76 NA NA SAM 2021-10-05 03:00:00 TS 48.1036 -39.8339 PROVISIONAL 953 952 P_____________ AL182021 48.1755 -39.7964 HU 72 965 1 240 270 400 300 120 150 150 60 70 70 1012 600 55 12 285 405 770 345 37 13
2021262N10349 2021 76 NA NA SAM 2021-10-05 06:00:00 ET 50.0000 -39.4000 PROVISIONAL 993 O_____________ nhc_working_bt AL182021 50.0000 -39.5000 EX 70 965 -4 240 270 400 300 120 150 150 60 70 70 1012 600 60 85 12 270 420 780 360 38 8

IBTrACS Databaseについて

本データベースは、米国NOAAが公開する1842年以降の世界の熱帯低気圧のベストトラックデータアーカイブInternational Best Track Archive for Climate Stewardship (IBTrACS)を、ウェブで閲覧しやすい形式に変換したものです。

最終更新日:2021-10-25